x

Gulf Of Maine - 78 Nm East Of Portsmouth, Nh (44005) Wave Buoy

12:50pm - Wed 26th Nov 2014 All times are EST. -5 hours from GMT.

  • Sig Wave height 4.3ft
  • Peak Period 10s
  • Average Period 5s
  • Wind
    20mph, 22mph gusts
  • Sea Temp 50°f
  • Air Temp 44°f
  • Sea Pressure 1018.5mb
  • Gulf Of Maine - 78 Nm East Of Portsmouth, Nh
  • Gulf Of Maine - 78 Nm East Of Portsmouth, Nh

More Historic Weather Station data

Upgrade to MSW Pro to gain access to the past 30 days of data for over 8000 Wavebouys and Weather Stations around the globe.

Join Pro

Comparision Forecast

View Surf forecast
   
Wed 11/26 12:50pm 4.5ft 10s 5s 20 22 mph 1018.5mb 50f 44f
11:50am 4.5ft 9s 4s 18 25 mph 1019.6mb 50f 45f
10:50am 4ft 9s 5s 20 27 mph 1019.8mb 50f 47f
9:50am 4.5ft 10s 5s 16 18 mph 1022.2mb 50f 48f
8:50am 4.5ft 9s 6s 11 13 mph 1021.6mb 50f 48f
7:50am 5ft 10s 6s 13 18 mph 1021.2mb 50f 48f
6:50am  -   -   -  16 20 mph 1020.7mb 51f 48f
5:50am 5ft 9s 6s 18 20 mph 1021mb 51f 49f
4:50am  -   -   -  18
mph
1020.9mb - 50f
3:50am 5ft 9s 6s 16 18 mph 1020.1mb 51f 51f
2:50am 5ft 9s 6s 11 13 mph 1020mb 51f 51f
1:50am 5ft 10s 6s 13 16 mph 1019.5mb 51f 51f
12:50am 5ft 9s 6s 13 18 mph 1018.8mb 51f 51f
Tue 11/25 11:50pm 5ft 9s 5s 18 22 mph 1017.7mb 51f 51f
10:50pm 6ft 10s 5s 20 22 mph 1017.2mb 51f 52f
9:50pm 5.5ft 10s 6s 22 27 mph 1016.2mb 51f 52f
8:50pm 5.5ft 11s 6s 18 22 mph 1015.2mb 51f 53f
7:50pm  -   -   -  18 22 mph 1014.6mb 51f 53f
6:50pm 7ft 10s 7s 16 20 mph 1013.3mb 51f 54f
5:50pm 7.5ft 10s 7s 16 18 mph 1012.4mb 51f 54f
4:50pm 7.5ft 10s 7s 16 18 mph 1011.4mb 51f 54f
3:50pm 8ft 10s 7s 18 20 mph 1010.4mb 51f 55f
2:50pm 6.5ft 9s 6s 18 20 mph 1010.2mb 51f 54f
1:50pm 7ft 10s 6s 18 22 mph 1009.7mb 51f 54f
12:50pm 7ft 11s 6s 18 20 mph 1009.6mb 51f 54f
11:50am 6.5ft 11s 6s 18 22 mph 1009.3mb 51f 54f
10:50am 7ft 10s 6s 20 25 mph 1009.3mb 51f 54f
9:50am 7.5ft 12s 6s 20 22 mph 1009.1mb 51f 54f
8:50am 8ft 10s 6s 20 22 mph 1008.9mb 51f 53f
7:50am 9ft 9s 6s 22 25 mph 1008.1mb 51f 53f
6:50am 9ft 9s 6s 25 31 mph 1007.3mb 51f 53f
5:50am 9ft 9s 7s 22 27 mph 1006.3mb 51f 54f
4:50am 9ft 10s 7s 20 22 mph 1005.6mb 51f 54f
3:50am 10ft 10s 7s 20 25 mph 1005.7mb 51f 54f
2:50am 11ft 10s 7s 22 25 mph 1005.4mb 51f 54f
1:50am 11.5ft 10s 7s 20 25 mph 1004.7mb 51f 54f
12:50am 10ft 9s 6s 25 29 mph 1003.6mb 51f 55f
Mon 11/24 11:50pm 10ft 8s 6s 29 34 mph 1003.2mb 51f 55f
10:50pm 11ft 8s 6s 27 34 mph 1002.8mb 51f 55f
9:50pm 10.5ft 8s 6s 27 31 mph 1002.7mb 51f 55f
8:50pm 12ft 8s 7s 25 29 mph 1003.2mb 51f 55f
7:50pm 12ft 8s 7s 31 38 mph 1002.5mb 51f 56f
6:50pm 13ft 8s 7s 31 38 mph 1001.5mb 51f 56f
5:50pm 13ft 8s 7s 34 40 mph 1001mb 51f 56f
4:50pm 11ft 8s 6s 34 40 mph 1001.9mb 51f 56f
3:50pm 11ft 8s 6s 31 38 mph 1002.6mb 51f 56f
2:50pm 11.5ft 8s 6s 29 38 mph 1003.2mb 51f 56f
1:50pm 10.5ft 7s 6s 34 40 mph 1003.4mb 51f 56f
12:50pm 8.5ft 7s 5s 36 45 mph 1003.7mb 51f 56f
11:50am 8ft 6s 5s 34 40 mph 1005mb 51f 55f
10:50am 6ft 6s 5s 31 38 mph 1007.5mb 51f 54f
9:50am 6ft 5s 4s 34 38 mph 1009.3mb 51f 55f
8:50am 4.5ft 5s 4s 27 31 mph 1012.6mb 51f 54f
7:50am 3.5ft 4s 4s 25 29 mph 1013.6mb 51f 54f
6:50am 3.5ft 8s 4s 20 22 mph 1014.6mb 51f 53f
5:50am 3ft 7s 4s 18 20 mph 1016.2mb 51f 52f
4:50am 3.5ft 8s 4s 20 25 mph 1017.3mb 51f 51f
3:50am 3ft 8s 5s 18 22 mph 1017.9mb 51f 51f
2:50am 3ft 8s 5s 13 16 mph 1018.4mb 51f 51f
1:50am 3ft 8s 5s 11 13 mph 1019.2mb 51f 51f
12:50am 2.5ft 8s 5s 13
mph
1019.2mb 51f 51f
Sun 11/23 11:50pm 2.5ft 7s 5s 13 16 mph 1019.7mb 51f 51f
10:50pm 3ft 6s 5s 13 16 mph 1020.3mb 51f 51f
9:50pm 3ft 6s 5s 4 7 mph 1019.7mb 51f 51f
8:50pm 3.5ft 7s 5s 9 11 mph 1020.5mb 51f 52f
7:50pm 3.5ft 9s 5s 11 13 mph 1021mb 51f 51f
6:50pm 3.5ft 6s 5s 11 13 mph 1020.3mb 51f 51f
5:50pm 4ft 6s 5s 9 11 mph 1020.1mb 51f 51f
4:50pm 4.5ft 5s 5s 9
mph
1019.6mb 51f 51f
3:50pm 4.5ft 6s 5s 9 11 mph 1019.4mb 51f 51f
2:50pm 5.5ft 6s 5s 16 20 mph 1018.8mb 51f 51f
1:50pm  -   -   -  18 20 mph 1018.2mb 51f 51f
12:50pm 6ft 7s 5s 18 20 mph 1017.7mb 51f 51f
11:50am 7ft 7s 5s 20 27 mph 1017.8mb 51f 50f
10:50am  -   -   -  25 29 mph 1018.1mb 51f 50f
9:50am 7ft 6s 5s 25 29 mph 1018.2mb 51f 50f
8:50am  -   -   -  22 27 mph 1017.7mb 51f 50f
7:50am 8ft 8s 6s 25 31 mph 1017.2mb 51f 49f
6:50am 8.5ft 8s 6s 25 29 mph 1016.6mb 51f 48f
5:50am 10ft 8s 6s 29 34 mph 1015.6mb 51f 47f
4:50am 10ft 8s 6s 31 36 mph 1015.3mb 51f 48f
3:50am 10ft 8s 6s 31 36 mph 1014.8mb 51f 48f
2:50am 10ft 8s 6s 29 34 mph 1014.9mb 51f 47f
1:50am 11.5ft 8s 6s 31 36 mph 1014.8mb 51f 47f
12:50am 13ft 8s 7s 31 38 mph 1014.5mb 51f 47f
Sat 11/22 11:50pm 12ft 8s 6s 34 40 mph 1014.5mb 51f 47f
10:50pm 12ft 8s 6s 34 40 mph 1014.3mb 51f 47f
9:50pm 11ft 8s 6s 36 40 mph 1014.4mb 51f 46f
8:50pm 10ft 8s 6s 31 38 mph 1015.3mb 51f 46f
7:50pm 10ft 8s 6s 29 36 mph 1015.9mb 51f 45f
6:50pm 9ft 7s 5s 29 38 mph 1016.8mb 51f 46f